CW1138 Weather Reports


Display with metric or nautical units.
time (UTC)temp
F
wind
direction
speed
MPH
gust
MPH
rain 1hr
in
rain 24hr
in
rain mn
in
humidity
%
barometer
mb
20181016234955 64 61 1.0 1.0 0.00 0.00 0.00 30 1025.9
20181016234454 64 61 1.0 2.0 0.00 0.00 0.00 31 1026.1
20181016233454 65 61 0.0 0.0 0.00 0.00 0.00 31 1026.1
20181016232954 65 61 1.0 1.0 0.00 0.00 0.00 30 1026.1
20181016232454 64 61 0.0 0.0 0.00 0.00 0.00 32 1026.1
20181016231954 64 61 0.0 0.0 0.00 0.00 0.00 32 1026.1
20181016231454 64 61 0.0 0.0 0.00 0.00 0.00 33 1026.1
20181016230454 64 61 1.0 2.0 0.00 0.00 0.00 29 1026.1
20181016225954 64 61 0.0 0.0 0.00 0.00 0.00 31 1026.2
20181016222453 65 61 1.0 1.0 0.00 0.00 0.00 30 1026.3
20181016221453 65 41 2.0 2.0 0.00 0.00 0.00 30 1026.4
20181016220953 66 41 2.0 4.0 0.00 0.00 0.00 30 1026.4
20181016220453 66 37 2.0 2.0 0.00 0.00 0.00 29 1026.4
20181016215953 66 58 3.0 4.0 0.00 0.00 0.00 31 1026.6
20181016213452 65 47 0.0 0.0 0.00 0.00 0.00 29 1026.7
20181016211452 65 69 3.0 3.0 0.00 0.00 0.00 28 1027.1
20181016210452 64 64 2.0 4.0 0.00 0.00 0.00 28 1027.1
20181016205952 64 41 0.0 0.0 0.00 0.00 0.00 31 1027.2
20181016205452 64 41 4.0 4.0 0.00 0.00 0.00 29 1027.2
20181016204952 63 79 2.0 3.0 0.00 0.00 0.00 30 1027.2
20181016204452 63 40 2.0 3.0 0.00 0.00 0.00 31 1027.4
20181016203952 62 58 2.0 3.0 0.00 0.00 0.00 32 1027.4
20181016203452 62 55 4.0 6.0 0.00 0.00 0.00 30 1027.4
20181016201951 62 54 2.0 2.0 0.00 0.00 0.00 31 1027.6
20181016200951 62 37 2.0 2.0 0.00 0.00 0.00 34 1027.8
20181016195951 61 55 3.0 4.0 0.00 0.00 0.00 34 1028.1
20181016195451 61 41 3.0 3.0 0.00 0.00 0.00 39 1028.3
20181016194304 60 55 2.0 4.0 0.00 0.00 0.00 39 1028.3
20181016193804 60 55 3.0 3.0 0.00 0.00 0.00 39 1028.3
20181016192304 58 51 2.0 3.0 0.00 0.00 0.00 41 1028.6
20181016191804 58 48 3.0 4.0 0.00 0.00 0.00 42 1028.7
20181016190304 58 37 3.0 3.0 0.00 0.00 0.00 42 1028.8
20181016184803 56 55 2.0 2.0 0.00 0.00 0.00 46 1029.1
20181016183303 54 44 3.0 3.0 0.00 0.00 0.00 50 1029.2
20181016182803 54 48 5.0 5.0 0.00 0.00 0.00 51 1029.2
20181016182303 54 62 4.0 4.0 0.00 0.00 0.00 52 1029.2
20181016181803 53 65 5.0 5.0 0.00 0.00 0.00 53 1029.3
20181016180803 52 79 2.0 3.0 0.00 0.00 0.00 56 1029.3
20181016175803 51 41 6.0 6.0 0.00 0.00 0.00 59 1029.3
20181016174803 50 44 3.0 4.0 0.00 0.00 0.00 60 1029.4
20181016174302 50 41 4.0 5.0 0.00 0.00 0.00 62 1029.4
20181016172802 48 24 5.0 5.0 0.00 0.00 0.00 64 1029.5
20181016171802 47 51 5.0 5.0 0.00 0.00 0.00 64 1029.6
20181016171302 47 27 7.0 7.0 0.00 0.00 0.00 64 1029.6
20181016170302 46 37 3.0 3.0 0.00 0.00 0.00 69 1029.5
20181016163802 44 37 5.0 6.0 0.00 0.00 0.00 72 1029.4
20181016163301 44 54 3.0 5.0 0.00 0.00 0.00 74 1029.4
20181016162801 43 40 2.0 4.0 0.00 0.00 0.00 75 1029.4
20181016162301 42 34 3.0 4.0 0.00 0.00 0.00 75 1029.4
20181016160301 41 34 5.0 5.0 0.00 0.00 0.00 78 1029.4
20181016155801 40 41 1.0 1.0 0.00 0.00 0.00 79 1029.4
20181016154801 40 31 3.0 4.0 0.00 0.00 0.00 80 1029.4
20181016154301 39 37 3.0 3.0 0.00 0.00 0.00 80 1029.4
20181016153800 39 54 3.0 3.0 0.00 0.00 0.00 81 1029.4
20181016151800 36 48 3.0 4.0 0.00 0.00 0.00 88 1029.3
20181016145800 31 55 0.0 0.0 0.00 0.00 0.00 89 1029.2
20181016145300 30 55 0.0 0.0 0.00 0.00 0.00 89 1029.2
20181016144300 30 55 0.0 0.0 0.00 0.00 0.00 87 1029.2
20181016143300 30 55 0.0 0.0 0.00 0.00 0.00 86 1029.0
20181016142759 30 55 0.0 0.0 0.00 0.00 0.00 86 1029.0
20181016141759 30 55 0.0 0.0 0.00 0.00 0.00 85 1028.9
20181016141259 30 55 0.0 0.0 0.00 0.00 0.00 85 1028.9
20181016140759 30 55 0.0 0.0 0.00 0.00 0.00 84 1028.9
20181016140259 31 55 0.0 0.0 0.00 0.00 0.00 84 1028.8
20181016135259 31 55 0.0 0.0 0.00 0.00 0.00 84 1028.8
20181016134259 32 55 0.0 0.0 0.00 0.00 0.00 82 1028.9
20181016133759 32 55 0.0 0.0 0.00 0.00 0.00 82 1028.9
20181016133258 32 55 0.0 0.0 0.00 0.00 0.00 82 1028.8
20181016132758 33 55 0.0 0.0 0.00 0.00 0.00 82 1028.8
20181016131758 34 55 0.0 0.0 0.00 0.00 0.00 81 1028.8
20181016131258 34 55 0.0 0.0 0.00 0.00 0.00 83 1028.8
20181016130758 34 55 0.0 0.0 0.00 0.00 0.00 83 1028.8
20181016124758 32 55 1.0 1.0 0.00 0.00 0.00 86 1028.8
20181016124258 32 55 1.0 1.0 0.00 0.00 0.00 86 1028.8
20181016123757 32 55 1.0 2.0 0.00 0.00 0.00 85 1028.8
20181016123257 32 55 0.0 0.0 0.00 0.00 0.00 84 1028.8
20181016122757 32 55 0.0 0.0 0.00 0.00 0.00 84 1028.8
20181016122258 32 55 0.0 0.0 0.00 0.00 0.00 84 1028.8
20181016121757 33 55 0.0 0.0 0.00 0.00 0.00 84 1028.7
20181016120257 33 55 1.0 1.0 0.00 0.00 0.00 85 1028.6
20181016114757 32 55 1.0 1.0 0.00 0.00 0.00 84 1028.6
20181016114257 33 55 0.0 0.0 0.00 0.00 0.00 85 1028.6
20181016113257 33 55 0.0 0.0 0.00 0.00 0.00 84 1028.6
20181016112256 33 55 2.0 2.0 0.00 0.00 0.00 84 1028.6
20181016111756 33 55 3.0 3.0 0.00 0.00 0.00 84 1028.4
20181016110756 33 55 1.0 2.0 0.00 0.00 0.00 84 1028.4
20181016110256 34 55 0.0 0.0 0.00 0.00 0.00 84 1028.3
20181016105256 34 55 3.0 3.0 0.00 0.00 0.00 84 1028.3
20181016104756 34 54 3.0 3.0 0.00 0.00 0.00 84 1028.3
20181016104256 34 54 3.0 3.0 0.00 0.00 0.00 84 1028.3
20181016103256 34 61 2.0 2.0 0.00 0.00 0.00 84 1028.3
20181016102756 34 61 2.0 2.0 0.00 0.00 0.00 84 1028.3
20181016102256 34 65 3.0 3.0 0.00 0.00 0.00 84 1028.3
20181016101755 34 65 2.0 2.0 0.00 0.00 0.00 84 1028.4
20181016101255 34 65 2.0 2.0 0.00 0.00 0.00 84 1028.4
20181016100755 34 58 3.0 3.0 0.00 0.00 0.00 84 1028.4
20181016100255 34 58 2.0 3.0 0.00 0.00 0.00 84 1028.4
20181016095255 34 58 1.0 2.0 0.00 0.00 0.00 84 1028.4
20181016094755 34 58 3.0 3.0 0.00 0.00 0.00 84 1028.4
20181016094255 34 58 2.0 2.0 0.00 0.00 0.00 83 1028.4
20181016093755 34 58 3.0 3.0 0.00 0.00 0.00 83 1028.4
20181016093255 34 55 3.0 3.0 0.00 0.00 0.00 83 1028.3
20181016092755 34 47 2.0 2.0 0.00 0.00 0.00 83 1028.3
20181016092255 34 55 2.0 2.0 0.00 0.00 0.00 83 1028.3
20181016091755 34 55 3.0 4.0 0.00 0.00 0.00 83 1028.4
20181016085754 34 55 1.0 2.0 0.00 0.00 0.00 83 1028.3
20181016085254 34 55 2.0 3.0 0.00 0.00 0.00 83 1028.3
20181016084754 34 55 3.0 3.0 0.00 0.00 0.00 84 1028.3
20181016083754 33 233 2.0 2.0 0.00 0.00 0.00 82 1028.3
20181016083254 33 233 2.0 2.0 0.00 0.00 0.00 82 1028.2
20181016082754 34 233 1.0 2.0 0.00 0.00 0.00 82 1028.2
20181016082254 34 233 1.0 2.0 0.00 0.00 0.00 82 1028.2
20181016075753 34 233 1.0 1.0 0.00 0.00 0.00 81 1028.2
20181016072753 34 233 1.0 2.0 0.00 0.00 0.00 80 1027.9
20181016072253 34 233 1.0 1.0 0.00 0.00 0.00 80 1027.9
20181016071753 35 233 2.0 2.0 0.00 0.00 0.00 78 1027.8
20181016071252 36 233 1.0 2.0 0.00 0.00 0.00 77 1027.8
20181016070753 36 233 1.0 1.0 0.00 0.00 0.00 78 1027.8
20181016065752 35 243 2.0 3.0 0.00 0.00 0.00 80 1027.8
20181016064252 35 243 0.0 0.0 0.00 0.00 0.00 79 1027.8
20181016063752 35 243 0.0 0.0 0.00 0.00 0.00 80 1027.8
20181016062752 35 243 0.0 0.0 0.00 0.00 0.00 80 1027.8
20181016062252 35 243 0.0 0.0 0.00 0.00 0.00 79 1027.8
20181016061752 36 243 0.0 0.0 0.00 0.00 0.00 79 1027.7
20181016060752 36 243 0.0 0.0 0.00 0.00 0.00 78 1027.7
20181016055251 37 243 0.0 0.0 0.00 0.00 0.00 77 1027.7
20181016054251 37 243 0.0 0.0 0.00 0.00 0.00 77 1027.7
20181016053251 37 243 0.0 0.0 0.00 0.00 0.00 77 1027.6
20181016052251 37 243 0.0 0.0 0.00 0.00 0.00 76 1027.6
20181016051751 37 243 0.0 0.0 0.00 0.00 0.00 76 1027.6
20181016051251 37 243 0.0 0.0 0.00 0.00 0.00 75 1027.6
20181016050251 37 243 0.0 0.0 0.00 0.00 0.00 75 1027.4
20181016045751 38 243 0.0 0.0 0.00 0.00 0.00 74 1027.4
20181016045251 38 243 0.0 0.0 0.00 0.00 0.00 73 1027.4
20181016044751 38 243 0.0 0.0 0.00 0.00 0.00 74 1027.4
20181016043750 38 243 0.0 0.0 0.00 0.00 0.00 74 1027.4
20181016043250 38 243 0.0 0.0 0.00 0.00 0.00 73 1027.3
20181016042750 38 243 0.0 0.0 0.00 0.00 0.00 73 1027.3
20181016042250 38 243 0.0 0.0 0.00 0.00 0.00 72 1027.3
20181016040750 38 243 0.0 0.0 0.00 0.00 0.00 72 1027.3
20181016040250 38 243 0.0 0.0 0.00 0.00 0.00 72 1027.3
20181016034750 39 243 0.0 0.0 0.00 0.00 0.00 72 1027.2
20181016033249 39 243 0.0 0.0 0.00 0.00 0.00 69 1027.1
20181016032749 40 243 0.0 0.0 0.00 0.00 0.00 68 1027.1
20181016031749 40 243 0.0 0.0 0.00 0.00 0.00 68 1027.0
20181016031249 40 243 0.0 0.0 0.00 0.00 0.00 67 1027.0
20181016030749 41 243 0.0 0.0 0.00 0.00 0.00 67 1027.0
20181016030249 41 243 0.0 0.0 0.00 0.00 0.00 65 1027.1
20181016024749 42 243 0.0 0.0 0.00 0.00 0.00 63 1027.2
20181016024249 42 243 0.0 0.0 0.00 0.00 0.00 63 1027.2
20181016023748 43 243 0.0 0.0 0.00 0.00 0.00 62 1027.2
20181016022249 44 243 0.0 0.0 0.00 0.00 0.00 60 1027.2
20181016021248 45 243 0.0 0.0 0.00 0.00 0.00 58 1027.0
20181016020748 46 243 0.0 0.0 0.00 0.00 0.00 57 1027.0
20181016020248 46 243 0.0 0.0 0.00 0.00 0.00 56 1027.1
20181016015748 47 243 0.0 0.0 0.00 0.00 0.00 54 1027.1
20181016014748 48 243 0.0 0.0 0.00 0.00 0.00 51 1027.2
20181016014248 49 243 0.0 0.0 0.00 0.00 0.00 50 1027.2
20181016013247 50 243 0.0 0.0 0.00 0.00 0.00 47 1027.1
20181016012747 51 243 0.0 0.0 0.00 0.00 0.00 46 1027.1
20181016012247 52 243 0.0 0.0 0.00 0.00 0.00 44 1027.1
20181016011247 54 243 0.0 0.0 0.00 0.00 0.00 43 1027.2
20181016010747 55 243 0.0 0.0 0.00 0.00 0.00 40 1027.2
20181016005247 58 243 0.0 0.0 0.00 0.00 0.00 34 1027.1
20181016004747 59 243 0.0 0.0 0.00 0.00 0.00 32 1027.2
20181016003747 60 243 0.0 0.0 0.00 0.00 0.00 31 1027.2
20181016003246 61 243 0.0 0.0 0.00 0.00 0.00 30 1027.2
20181016002746 61 243 0.0 0.0 0.00 0.00 0.00 28 1027.2
20181016001246 62 243 0.0 0.0 0.00 0.00 0.00 28 1027.3
20181016000746 62 243 0.0 0.0 0.00 0.00 0.00 27 1027.3
20181015235746 63 243 0.0 0.0 0.00 0.00 0.00 26 1027.3